Bayberry, New York
Current Conditions -  °F | °C
As of 10:54 AM on Friday 31 Oct 2014 (Local Time) from KSYR Reporting Station
Broken Clouds Broken Clouds  
Wind Chill: 42°   Ceiling: 5000
Heat Index: 45°   Visibility: 10mi
Dew Point: 38°   Wind: 6mph
Humidity: 76%   Direction: 80°E
Pressure: 30"   Gusts: NA
Location:  43.1489°N, 76.2142°W
Report Text: KSYR 311454Z 08005KT 10SM FEW020 BKN050 BKN150 07/03 A3000 RMK AO2 SLP159 T00720033 58003
Loading
Personal Weather Stations






























Interactive Weather Map New forecast layout! Learn more

10-Day Weather Forecast

Advertisements
Track Severe Weather on mobile